DIMXM EKBI-ZZZZ

Flight info

Callsign DIMXM
Flight time N/A
Altitude 2000
Route VFR
Aircraft BE58/L-VGDW/C

Departure

Time 2025-10-03 11:25
Airport Billund Airport (EKBI)

Arrival

Time N/A
Airport ZZZZ
Time Latitude Longitude Altitude Speed Heading
2025-10-03 11:15 55.73557 9.14808 217 ft 0 kts 46°
2025-10-03 11:19 55.73626 9.14838 217 ft 19 kts 359°
2025-10-03 11:19 55.73906 9.14734 221 ft 8 kts 19°
2025-10-03 11:20 55.73917 9.14757 221 ft 0 kts 59°
2025-10-03 11:23 55.74031 9.15228 224 ft 36 kts 85°
2025-10-03 11:23 55.74085 9.16885 461 ft 99 kts 97°
2025-10-03 11:24 55.75232 9.19724 1157 ft 142 kts
2025-10-03 11:24 55.76936 9.18348 1266 ft 140 kts 292°
2025-10-03 11:25 55.77425 9.15135 1372 ft 132 kts 272°
2025-10-03 11:25 55.77750 9.11923 1452 ft 131 kts 269°
2025-10-03 11:26 55.77639 9.09955 1452 ft 111 kts 217°
2025-10-03 11:26 55.76503 9.09481 1182 ft 100 kts 176°
2025-10-03 11:27 55.75111 9.09536 895 ft 101 kts 169°
2025-10-03 11:27 55.74044 9.10798 673 ft 106 kts 113°
2025-10-03 11:28 55.74014 9.14567 221 ft 84 kts 88°
2025-10-03 11:28 55.74065 9.17046 670 ft 104 kts 97°
2025-10-03 11:29 55.74748 9.19424 1084 ft 142 kts 27°
2025-10-03 11:29 55.76759 9.19234 1450 ft 140 kts 325°
2025-10-03 11:30 55.77216 9.17276 1241 ft 127 kts 272°
2025-10-03 11:30 55.77454 9.14730 1169 ft 127 kts 269°
2025-10-03 11:31 55.77570 9.11611 1199 ft 122 kts 257°
2025-10-03 11:31 55.76578 9.10122 1109 ft 102 kts 176°
2025-10-03 11:32 55.74323 9.10831 716 ft 101 kts 141°
2025-10-03 11:32 55.73971 9.12796 361 ft 104 kts 95°
2025-10-03 11:33 55.74034 9.15216 224 ft 82 kts 89°
2025-10-03 11:33 55.74196 9.17794 598 ft 131 kts 68°
2025-10-03 11:34 55.75387 9.18735 996 ft 167 kts
2025-10-03 11:34 55.77764 9.18435 1096 ft 170 kts 351°
2025-10-03 11:35 55.79344 9.16557 1177 ft 163 kts 307°
2025-10-03 11:36 55.81076 9.08574 1281 ft 157 kts 281°
2025-10-03 11:36 55.81314 9.07370 1363 ft 154 kts 284°
2025-10-03 11:36 55.82116 9.03914 1466 ft 155 kts 285°
2025-10-03 11:37 55.83386 8.98461 1464 ft 161 kts 285°
2025-10-03 11:38 55.84233 8.94735 1450 ft 165 kts 286°
2025-10-03 11:38 55.84675 8.92833 1439 ft 165 kts 285°
2025-10-03 11:38 55.85547 8.89064 1424 ft 166 kts 285°
2025-10-03 11:39 55.86424 8.85250 1417 ft 166 kts 285°
2025-10-03 11:39 55.87234 8.81417 1410 ft 160 kts 268°
2025-10-03 11:40 55.87289 8.77517 1404 ft 159 kts 264°
2025-10-03 11:41 55.87093 8.71904 1401 ft 138 kts 219°
2025-10-03 11:41 55.85522 8.71824 1396 ft 121 kts 157°
2025-10-03 11:42 55.83667 8.72980 1395 ft 121 kts 160°
2025-10-03 11:42 55.83138 8.73315 1395 ft 121 kts 161°
2025-10-03 11:42 55.81668 8.74741 1401 ft 123 kts 145°